aviador You're here:

KDIJ Decoded Metar

DRIGGS REED MEM in ID, USA
Report Time2018-05-25 19:56:00
UTC Time2018-05-25 20:43:22
Flight Rules vfr VFR
WindCalm
Visibility9999 m
Phenomena:N/A
Clouds:N/A
Expected CloudBase > 8,400 ft AGL from Temp-Dew spread
CeilingNone
Temp23°C (ISA +20)
Dew Point02°C (25% RH)
AAT21.3°C
QNH1019 hPa
Density Alt8,455 ft
Elevation6,230 ft
Report Wrong Elevation
Raw Report
KDIJ 251956Z AUTO 00000KT 10SM CLR 23/02 A3009 RMK AO2 SLP137
T02330022=

Extra information for KDIJ:More info

Metar Taf Metar & Taf Last 4 Metars F.Rules Stats Wind Profile Meteogram Temp Stats Airport Information Weather charts Add Link Nearby VenuesMetar ALERT Operation Metar Decoded Social comments

AIRNAV info for KDIJ